createdAt,value
2018-02-15T15:39:16.564Z,20.10
2018-02-15T15:40:16.380Z,20.66
2018-02-15T15:41:16.317Z,20.78
2018-02-15T15:42:16.279Z,20.93
2018-02-15T15:43:16.274Z,20.93
2018-02-15T15:44:16.230Z,21.00
2018-02-15T15:45:16.202Z,20.96
2018-02-15T15:46:16.212Z,20.88
2018-02-15T15:47:16.230Z,20.96
2018-02-15T15:48:16.565Z,21.01
2018-02-15T15:49:16.187Z,21.03
2018-02-15T15:50:16.074Z,21.05
2018-02-15T15:51:16.042Z,21.11
2018-02-15T15:52:16.012Z,21.13
2018-02-15T15:53:16.064Z,21.12
2018-02-15T15:54:15.978Z,21.18
2018-02-15T15:55:15.978Z,21.27
2018-02-15T15:56:15.931Z,21.31
2018-02-15T15:57:16.000Z,21.26
2018-02-15T15:58:15.869Z,21.33
2018-02-15T15:59:15.896Z,21.24
2018-02-15T16:00:15.810Z,21.37
2018-02-15T16:01:15.807Z,21.40
2018-02-15T16:02:15.766Z,21.30
2018-02-15T16:03:15.816Z,21.26
2018-02-15T16:04:15.759Z,21.34
2018-02-15T16:05:15.738Z,21.28
2018-02-15T16:06:15.673Z,21.27
2018-02-15T16:07:15.768Z,21.27
2018-02-15T16:08:15.621Z,21.19
2018-02-15T16:09:15.603Z,21.18
2018-02-15T16:10:15.652Z,21.12
2018-02-15T16:11:15.545Z,21.19
2018-02-15T16:12:15.565Z,21.28
2018-02-15T16:13:15.526Z,21.28
2018-02-15T16:14:15.498Z,21.28
2018-02-15T16:15:16.511Z,21.21
2018-02-15T16:16:15.433Z,21.21
2018-02-15T16:17:15.502Z,21.18
2018-02-15T16:18:15.412Z,21.18
2018-02-15T16:19:15.418Z,21.03
2018-02-15T16:20:15.335Z,21.08
2018-02-15T16:21:15.312Z,21.06
2018-02-15T16:22:15.303Z,21.08
2018-02-15T16:23:15.343Z,20.90
2018-02-15T16:24:15.239Z,20.93
2018-02-15T16:25:15.369Z,20.93
2018-02-15T16:26:15.199Z,20.85
2018-02-15T16:27:15.270Z,20.85
2018-02-15T16:28:15.148Z,20.83
2018-02-15T16:29:15.181Z,20.88
2018-02-15T16:30:15.101Z,20.83
2018-02-15T16:31:15.191Z,20.88
2018-02-15T16:32:15.048Z,20.93
2018-02-15T16:33:15.104Z,20.93
2018-02-15T16:34:15.004Z,20.94
2018-02-15T16:35:15.019Z,21.05
2018-02-15T16:36:14.973Z,21.00
2018-02-15T16:37:15.026Z,21.01
2018-02-15T16:38:14.913Z,21.08
2018-02-15T16:39:14.890Z,21.09
2018-02-15T16:40:14.875Z,21.06
2018-02-15T16:41:14.846Z,21.19
2018-02-15T16:42:14.816Z,21.13
2018-02-15T16:43:15.498Z,21.19
2018-02-15T16:44:15.790Z,21.16
2018-02-15T16:45:14.748Z,21.27
2018-02-15T16:46:14.778Z,21.28
2018-02-15T16:47:14.696Z,21.38
2018-02-15T16:48:14.794Z,21.37
2018-02-15T16:49:14.656Z,21.33
2018-02-15T16:50:14.643Z,21.38
2018-02-15T16:51:14.611Z,21.27
2018-02-15T16:52:15.636Z,21.38
2018-02-15T16:53:14.562Z,21.27
2018-02-15T16:54:14.629Z,21.30
2018-02-15T16:55:14.532Z,21.19
2018-02-15T16:56:14.541Z,21.24
2018-02-15T16:57:14.473Z,21.28
2018-02-15T16:58:14.555Z,21.30
2018-02-15T16:59:14.424Z,21.30
2018-02-15T17:00:14.468Z,21.28
2018-02-15T17:01:14.400Z,21.33
2018-02-15T17:02:14.388Z,21.27
2018-02-15T17:03:14.347Z,21.33
2018-02-15T17:04:14.393Z,21.31
2018-02-15T17:05:14.272Z,21.24
2018-02-15T17:06:14.302Z,21.26
2018-02-15T17:07:14.271Z,21.19
2018-02-15T17:08:14.226Z,21.12
2018-02-15T17:09:14.192Z,21.11
2018-02-15T17:10:14.165Z,21.08
2018-02-15T17:11:14.182Z,21.03
2018-02-15T17:12:14.142Z,20.72
2018-02-15T17:13:14.095Z,20.64
2018-02-15T17:14:14.153Z,20.60
2018-02-15T17:15:14.038Z,20.58
2018-02-15T17:16:15.090Z,20.58
2018-02-15T17:17:14.006Z,20.71
2018-02-15T17:18:14.075Z,20.58
2018-02-15T17:19:13.948Z,20.83
2018-02-15T17:20:13.960Z,20.71
2018-02-15T17:21:13.914Z,20.83
2018-02-15T17:22:13.901Z,20.82
2018-02-15T17:23:13.863Z,20.98
2018-02-15T17:24:13.840Z,21.05
2018-02-15T17:25:13.812Z,21.09
2018-02-15T17:26:13.823Z,21.13
2018-02-15T17:27:13.761Z,21.19
2018-02-15T17:28:13.840Z,21.21
2018-02-15T17:29:13.713Z,21.42
2018-02-15T17:30:13.751Z,21.36
2018-02-15T17:31:13.673Z,21.34
2018-02-15T17:32:13.762Z,21.43
2018-02-15T17:33:13.619Z,21.48
2018-02-15T17:34:13.672Z,21.49
2018-02-15T17:35:13.578Z,21.51
2018-02-15T17:36:13.552Z,21.59
2018-02-15T17:37:13.552Z,21.55
2018-02-15T17:38:13.595Z,21.58
2018-02-15T17:39:13.480Z,21.58
2018-02-15T17:40:13.517Z,21.46
2018-02-15T17:41:13.432Z,21.49
2018-02-15T17:42:13.539Z,21.49
2018-02-15T17:43:13.384Z,21.42
2018-02-15T17:44:13.435Z,21.42
2018-02-15T17:45:13.331Z,21.49
2018-02-15T17:46:13.349Z,21.51
2018-02-15T17:47:13.290Z,21.53
2018-02-15T17:48:13.363Z,21.59
2018-02-15T17:49:13.251Z,21.56
2018-02-15T17:50:13.276Z,21.46
2018-02-15T17:51:13.202Z,21.53
2018-02-15T17:52:13.290Z,21.48
2018-02-15T17:53:13.157Z,21.43
2018-02-15T17:54:13.130Z,21.37
2018-02-15T17:55:13.200Z,21.27
2018-02-15T17:56:13.076Z,21.36
2018-02-15T17:57:13.126Z,21.22
2018-02-15T17:58:13.057Z,21.19
2018-02-15T17:59:13.020Z,21.06
2018-02-15T18:00:12.996Z,21.06
2018-02-15T18:01:13.050Z,21.03
2018-02-15T18:02:12.954Z,20.98
2018-02-15T18:03:13.008Z,20.94
2018-02-15T18:04:12.905Z,20.96
2018-02-15T18:05:44.604Z,20.94
2018-02-15T18:06:12.852Z,20.90
2018-02-15T18:07:12.861Z,20.88
2018-02-15T18:08:29.562Z,20.91
2018-02-15T18:09:12.777Z,20.88
2018-02-15T18:10:23.637Z,20.85
2018-02-15T18:11:12.746Z,20.94
2018-02-15T18:12:25.593Z,20.87
2018-02-15T18:13:12.683Z,20.94
2018-02-15T18:14:18.555Z,20.83
2018-02-15T18:15:12.680Z,20.91
2018-02-15T18:16:19.612Z,20.88
2018-02-15T18:17:12.593Z,20.97
2018-02-15T18:18:33.579Z,20.91
2018-02-15T18:19:12.545Z,21.08
2018-02-15T18:20:14.586Z,20.88
2018-02-15T18:21:12.534Z,20.91
2018-02-15T18:22:12.564Z,21.06
2018-02-15T18:23:12.467Z,21.00
2018-02-15T18:24:12.471Z,21.08
2018-02-15T18:25:12.396Z,21.08
2018-02-15T18:26:12.376Z,21.15
2018-02-15T18:27:12.366Z,21.19
2018-02-15T18:28:12.328Z,21.16
2018-02-15T18:29:12.307Z,21.30
2018-02-15T18:30:12.279Z,21.26
2018-02-15T18:31:12.295Z,21.38
2018-02-15T18:32:12.231Z,21.40
2018-02-15T18:33:12.207Z,21.46
2018-02-15T18:34:12.192Z,21.43
2018-02-15T18:35:12.162Z,21.45
2018-02-15T18:36:12.145Z,21.49
2018-02-15T18:37:12.113Z,21.55
2018-02-15T18:38:12.090Z,21.61
2018-02-15T18:39:12.070Z,21.55
2018-02-15T18:40:12.052Z,21.45
2018-02-15T18:41:12.075Z,21.52
2018-02-15T18:42:11.999Z,21.52
2018-02-15T18:43:12.081Z,21.59
2018-02-15T18:44:11.950Z,21.53
2018-02-15T18:45:11.927Z,21.58
2018-02-15T18:46:11.914Z,21.53
2018-02-15T18:47:11.906Z,21.61
2018-02-15T18:48:11.875Z,21.56
2018-02-15T19:12:19.200Z,21.00
2018-02-15T19:13:19.106Z,21.03
2018-02-15T19:15:12.368Z,21.06
2018-02-15T19:16:12.388Z,21.09
2018-02-15T19:17:12.300Z,21.12
2018-02-15T19:18:12.295Z,21.13
2018-02-15T19:19:12.269Z,21.12
2018-02-15T19:20:12.338Z,21.19
2018-02-15T19:21:12.202Z,21.19
2018-02-15T19:22:12.221Z,21.22
2018-02-15T19:23:12.163Z,21.22
2018-02-15T19:24:12.244Z,21.27
2018-02-15T19:25:12.100Z,21.30
2018-02-15T19:26:12.157Z,21.33
2018-02-15T19:27:12.062Z,21.33
2018-02-15T19:28:12.058Z,21.42
2018-02-15T19:29:12.014Z,21.40
2018-02-15T19:30:12.064Z,21.38
2018-02-15T19:31:11.961Z,21.28
2018-02-15T19:32:12.003Z,21.38
2018-02-15T19:33:11.942Z,21.37
2018-02-15T19:34:11.994Z,21.31
2018-02-15T19:35:11.881Z,21.33
2018-02-15T19:36:11.910Z,21.40
2018-02-15T19:37:11.850Z,21.28
2018-02-15T19:38:11.921Z,21.36
2018-02-15T19:39:11.796Z,21.34
2018-02-15T19:40:12.861Z,21.33
2018-02-15T19:41:11.752Z,21.42
2018-02-15T19:42:12.766Z,21.38
2018-02-15T19:43:11.695Z,21.24
2018-02-15T19:44:13.697Z,21.33
2018-02-15T19:45:11.636Z,21.33
2018-02-15T19:46:11.670Z,21.26
2018-02-15T19:47:11.594Z,21.28
2018-02-15T19:48:13.645Z,21.28
2018-02-15T19:49:11.556Z,21.15
2018-02-15T19:50:11.590Z,21.12
2018-02-15T19:51:11.499Z,21.01
2018-02-15T19:52:11.496Z,20.94
2018-02-15T19:53:11.447Z,20.85
2018-02-15T19:54:11.513Z,20.81
2018-02-15T19:55:11.401Z,20.79
2018-02-15T19:59:59.424Z,20.79
2018-02-15T20:00:58.282Z,20.75
2018-02-15T20:01:58.776Z,20.64
2018-02-15T20:02:58.236Z,20.76
2018-02-15T20:03:58.266Z,20.78
2018-02-15T20:04:58.183Z,20.73
2018-02-15T20:05:58.163Z,20.87
2018-02-15T20:06:58.163Z,20.93
2018-02-15T20:07:58.124Z,20.90
2018-02-15T20:08:58.200Z,20.87
2018-02-15T20:09:58.187Z,20.91
2018-02-15T20:10:58.042Z,20.93
2018-02-15T20:11:58.018Z,20.97
2018-02-15T20:12:57.997Z,21.05
2018-02-15T20:13:57.966Z,21.03
2018-02-15T20:14:58.034Z,21.09
2018-02-15T20:15:57.926Z,21.06
2018-02-15T20:16:57.951Z,21.13
2018-02-15T20:17:57.884Z,21.19
2018-02-15T20:18:57.964Z,21.15
2018-02-15T20:19:57.837Z,21.06
2018-02-15T20:20:57.801Z,21.13
2018-02-15T20:21:57.784Z,21.11
2018-02-15T20:22:57.791Z,21.06
2018-02-15T20:23:57.733Z,21.06
2018-02-15T20:24:57.803Z,21.09
2018-02-15T20:25:57.683Z,21.15
2018-02-15T20:26:57.708Z,21.09
2018-02-15T20:27:57.637Z,21.19
2018-02-15T20:28:57.729Z,21.12
2018-02-15T20:29:57.595Z,21.08
2018-02-15T20:30:57.636Z,21.09
2018-02-15T20:31:57.541Z,21.06
2018-02-15T20:32:57.549Z,21.11
2018-02-15T20:33:57.506Z,21.15
2018-02-15T20:34:57.511Z,21.22
2018-02-15T20:35:57.573Z,21.30
2018-02-15T20:36:57.470Z,21.19
2018-02-15T20:37:57.478Z,21.22
2018-02-15T20:38:57.414Z,21.16
2018-02-15T20:39:57.390Z,21.16
2018-02-15T20:40:57.338Z,21.18
2018-02-15T20:41:57.403Z,20.97
2018-02-15T20:42:57.288Z,21.01
2018-02-15T20:43:57.267Z,21.01
2018-02-15T20:44:57.320Z,20.93
2018-02-15T20:45:57.225Z,20.79
2018-02-15T20:46:57.234Z,20.81
2018-02-15T20:47:57.172Z,20.81
2018-02-15T20:48:57.147Z,20.81
2018-02-15T20:49:57.124Z,20.85
2018-02-15T20:50:57.100Z,20.88
2018-02-15T20:51:58.821Z,20.94
2018-02-15T20:52:58.603Z,20.90
2018-02-15T20:53:58.096Z,21.08
2018-02-15T20:54:58.567Z,21.12
2018-02-15T20:55:57.522Z,21.05
2018-02-15T20:57:01.144Z,21.13
2018-02-15T20:59:28.608Z,21.30
2018-02-15T21:00:28.574Z,21.21
2018-02-15T21:02:21.432Z,21.31
2018-02-15T21:03:21.370Z,21.40
2018-02-15T21:04:21.363Z,21.43
2018-02-15T21:05:21.330Z,21.46
2018-02-15T21:06:21.300Z,21.49
2018-02-15T21:07:21.285Z,21.48
2018-02-15T21:08:21.258Z,21.43
2018-02-15T21:09:21.226Z,21.49
2018-02-15T21:10:21.208Z,21.56
2018-02-15T21:11:21.184Z,21.55
2018-02-15T21:12:21.153Z,21.56
2018-02-15T21:13:21.127Z,21.53
2018-02-15T21:14:21.102Z,21.59
2018-02-15T21:15:21.080Z,21.59
2018-02-15T21:16:21.083Z,21.51
2018-02-15T21:17:21.029Z,21.51
2018-02-15T21:18:21.013Z,21.58
2018-02-15T21:19:21.002Z,21.49
2018-02-15T21:20:20.963Z,21.53
2018-02-15T21:21:20.933Z,21.51
2018-02-15T21:22:20.906Z,21.52
2018-02-15T21:23:20.884Z,21.38
2018-02-15T21:24:20.860Z,21.36
2018-02-15T21:25:20.839Z,21.26
2018-02-15T21:26:20.808Z,21.16
2018-02-15T21:27:20.810Z,21.16
2018-02-15T21:28:20.789Z,21.13
2018-02-15T21:29:20.735Z,21.15
2018-02-15T21:30:20.714Z,21.09
2018-02-15T21:31:20.698Z,21.06
2018-02-15T21:32:20.662Z,21.03
2018-02-15T21:33:20.639Z,20.98
2018-02-15T21:34:20.616Z,20.97
2018-02-15T21:35:20.590Z,21.00
2018-02-15T21:36:20.560Z,20.93
2018-02-15T21:37:20.541Z,20.87
2018-02-15T21:38:20.511Z,20.85
2018-02-15T21:39:20.489Z,20.93
2018-02-15T21:40:20.462Z,20.93
2018-02-15T21:41:20.439Z,21.01
2018-02-15T21:42:20.431Z,21.08
2018-02-15T21:43:20.394Z,21.08
2018-02-15T21:44:20.365Z,21.15
2018-02-15T21:45:20.336Z,21.18
2018-02-15T21:46:20.314Z,21.28
2018-02-15T21:47:20.294Z,21.27
2018-02-15T21:48:20.264Z,21.38
2018-02-15T21:49:20.241Z,21.36
2018-02-15T21:50:20.213Z,21.37
2018-02-15T21:51:20.185Z,21.42
2018-02-15T21:52:20.163Z,21.42
2018-02-15T21:53:20.148Z,21.45
2018-02-15T21:54:20.114Z,21.49
2018-02-15T21:55:20.110Z,21.53
2018-02-15T21:56:20.063Z,21.51
2018-02-15T21:57:20.056Z,21.53
2018-02-15T21:58:20.014Z,21.59
2018-02-15T21:59:19.996Z,21.56
2018-02-15T22:00:19.994Z,21.59
2018-02-15T22:01:19.943Z,21.56
2018-02-15T22:02:19.918Z,21.64
2018-02-15T22:03:19.904Z,21.58
2018-02-15T22:04:19.875Z,21.59
2018-02-15T22:05:19.834Z,21.64
2018-02-15T22:06:19.815Z,21.59
2018-02-15T22:07:19.806Z,21.56
2018-02-15T22:08:19.767Z,21.43
2018-02-15T22:09:19.741Z,21.48
2018-02-15T22:10:19.708Z,21.49
2018-02-15T22:11:19.686Z,21.40
2018-02-15T22:12:19.656Z,21.31
2018-02-15T22:13:19.636Z,21.33
2018-02-15T22:14:19.611Z,21.26
2018-02-15T22:15:19.585Z,21.27
2018-02-15T22:16:19.558Z,21.19
2018-02-15T22:17:19.545Z,21.13
2018-02-15T22:18:19.510Z,21.15
2018-02-15T22:19:19.572Z,21.13
2018-02-15T22:20:19.483Z,21.18
2018-02-15T22:21:19.429Z,21.13
2018-02-15T22:22:19.425Z,21.16
2018-02-15T22:23:19.408Z,21.09
2018-02-15T22:24:19.384Z,21.13
2018-02-15T22:25:19.335Z,21.08
2018-02-15T22:26:19.308Z,21.09
2018-02-15T22:27:19.288Z,21.16
2018-02-15T22:28:19.261Z,21.11
2018-02-15T22:29:19.244Z,21.06
2018-02-15T22:30:19.215Z,21.00
2018-02-15T22:31:19.179Z,21.11
2018-02-15T22:32:19.161Z,21.09
2018-02-15T22:33:19.136Z,21.11
2018-02-15T22:34:19.113Z,21.16
2018-02-15T22:35:19.080Z,21.13
2018-02-15T22:36:19.062Z,21.15
2018-02-15T22:37:19.035Z,21.21
2018-02-15T22:38:19.011Z,21.31
2018-02-15T22:39:18.982Z,21.27
2018-02-15T22:40:18.961Z,21.30
2018-02-15T22:41:18.935Z,21.33
2018-02-15T22:42:18.912Z,21.38
2018-02-15T22:43:18.879Z,21.31
2018-02-15T22:44:18.860Z,21.40
2018-02-15T22:45:18.850Z,21.38
2018-02-15T22:46:18.820Z,21.38
2018-02-15T22:47:18.782Z,21.38
2018-02-15T22:48:18.755Z,21.27
2018-02-15T22:49:18.740Z,21.26
2018-02-15T22:50:18.708Z,21.21
2018-02-15T22:51:18.685Z,21.19
2018-02-15T22:52:18.654Z,21.18
2018-02-15T22:53:18.635Z,21.13
2018-02-15T22:54:18.631Z,21.13
2018-02-15T22:55:18.626Z,21.05
2018-02-15T22:56:18.552Z,21.00
2018-02-15T22:57:18.549Z,21.09
2018-02-15T22:58:18.505Z,21.12
2018-02-15T22:59:18.485Z,21.00
2018-02-15T23:00:18.456Z,21.01
2018-02-15T23:01:18.450Z,21.03
2018-02-15T23:02:18.431Z,21.01
2018-02-15T23:03:18.404Z,21.03
2018-02-15T23:04:18.351Z,21.03
2018-02-15T23:05:18.375Z,21.01
2018-02-15T23:06:18.317Z,21.08
2018-02-15T23:07:18.277Z,21.06
2018-02-15T23:08:18.252Z,21.15
2018-02-15T23:09:18.226Z,21.12
2018-02-15T23:10:18.206Z,21.19
2018-02-15T23:11:18.176Z,21.28
2018-02-15T23:12:18.153Z,21.27
2018-02-15T23:13:18.123Z,21.22
2018-02-15T23:14:18.104Z,21.31
2018-02-15T23:15:18.081Z,21.33
2018-02-15T23:16:18.053Z,21.28
2018-02-15T23:17:18.024Z,21.36
2018-02-15T23:18:17.996Z,21.42
2018-02-15T23:19:17.973Z,21.27
2018-02-15T23:20:17.944Z,21.45
2018-02-15T23:21:17.944Z,21.46
2018-02-15T23:22:17.941Z,21.46
2018-02-15T23:23:17.873Z,21.42
2018-02-15T23:24:17.856Z,21.42
2018-02-15T23:25:17.821Z,21.38
2018-02-15T23:26:17.796Z,21.36
2018-02-15T23:27:17.773Z,21.28
2018-02-15T23:28:17.766Z,21.28
2018-02-15T23:29:17.719Z,21.24
2018-02-15T23:30:17.697Z,21.24
2018-02-15T23:31:17.672Z,21.13
2018-02-15T23:32:17.678Z,21.13
2018-02-15T23:33:17.618Z,21.01
2018-02-15T23:34:17.621Z,21.11
2018-02-15T23:35:17.584Z,21.13
2018-02-15T23:36:17.540Z,21.16
2018-02-15T23:37:17.517Z,21.11
2018-02-15T23:38:17.514Z,21.12
2018-02-15T23:39:17.499Z,21.18
2018-02-15T23:40:17.456Z,21.18
2018-02-15T23:41:17.438Z,21.19
2018-02-15T23:42:17.395Z,21.21
2018-02-15T23:43:17.373Z,21.24
2018-02-15T23:44:17.352Z,21.24
2018-02-15T23:45:17.330Z,21.24
2018-02-15T23:46:17.305Z,21.26
2018-02-15T23:47:17.268Z,21.27
2018-02-15T23:48:17.243Z,21.28
2018-02-15T23:49:17.215Z,21.36
2018-02-15T23:50:17.196Z,21.33
2018-02-15T23:51:17.188Z,21.38
2018-02-15T23:52:17.140Z,21.38
2018-02-15T23:53:17.117Z,21.42
2018-02-15T23:54:17.096Z,21.42
2018-02-15T23:55:17.077Z,21.40
2018-02-15T23:56:17.054Z,21.45
2018-02-15T23:57:17.017Z,21.46
2018-02-15T23:58:16.990Z,21.51
2018-02-15T23:59:16.967Z,21.34
